Time;durP1;ratioP1;P1;durP2;ratioP2;P2;SDS_P1;SDS_P2;PMS_P1;PMS_P2;Temp;Humidity;BMP_temperature;BMP_pressure;BME280_temperature;BME280_humidity;BME280_pressure;Samples;Min_cycle;Max_cycle;Signal;HPM_P1;HPM_P2
2023/03/08 00:02:17;;;;;;;0.70;0.70;;;;;;;-1.44;100.00;99892.31;5059318;28;20060;-75
2023/03/08 00:04:42;;;;;;;0.60;0.60;;;;;;;-1.44;100.00;99901.81;5038757;28;20723;-75
2023/03/08 00:07:08;;;;;;;1.60;0.68;;;;;;;-1.45;100.00;99908.78;5057567;28;20043;-76
2023/03/08 00:09:34;;;;;;;0.50;0.50;;;;;;;-1.45;100.00;99913.09;5052955;28;21676;-75
2023/03/08 00:11:59;;;;;;;0.73;0.73;;;;;;;-1.45;100.00;99902.72;5052175;28;20032;-75
2023/03/08 00:14:25;;;;;;;0.57;0.57;;;;;;;-1.44;100.00;99914.81;5055212;28;20122;-76
2023/03/08 00:16:50;;;;;;;0.75;0.60;;;;;;;-1.46;100.00;99913.97;5038521;28;20504;-76
2023/03/08 00:19:16;;;;;;;0.60;0.60;;;;;;;-1.45;100.00;99916.56;5003869;28;20037;-75
2023/03/08 00:21:42;;;;;;;0.75;0.60;;;;;;;-1.46;100.00;99917.44;5054945;28;20403;-75
2023/03/08 00:24:07;;;;;;;0.60;0.60;;;;;;;-1.48;100.00;99926.13;5053383;28;20424;-76
2023/03/08 00:26:33;;;;;;;0.60;0.60;;;;;;;-1.51;100.00;99914.03;5052645;28;20051;-76
2023/03/08 00:29:01;;;;;;;3.72;0.73;;;;;;;-1.54;100.00;99908.84;5054522;28;20040;-76
2023/03/08 00:31:27;;;;;;;0.65;0.65;;;;;;;-1.57;100.00;99917.53;5053307;28;20040;-76
2023/03/08 00:33:53;;;;;;;1.00;0.90;;;;;;;-1.61;100.00;99913.25;5053815;28;20060;-76
2023/03/08 00:36:19;;;;;;;1.13;0.90;;;;;;;-1.64;100.00;99913.28;5051387;28;20098;-75
2023/03/08 00:38:46;;;;;;;3.28;1.17;;;;;;;-1.68;100.00;99906.41;5032940;28;21195;-76
2023/03/08 00:41:12;;;;;;;1.70;1.00;;;;;;;-1.71;100.00;99907.31;5050824;28;20037;-76
2023/03/08 00:43:38;;;;;;;1.27;0.70;;;;;;;-1.72;100.00;99912.50;5020297;28;20032;-75
2023/03/08 00:46:04;;;;;;;1.33;0.80;;;;;;;-1.69;100.00;99909.88;5052704;28;20157;-76
2023/03/08 00:48:30;;;;;;;1.13;0.60;;;;;;;-1.67;100.00;99903.81;5042219;28;20265;-76
2023/03/08 00:50:56;;;;;;;1.20;0.50;;;;;;;-1.66;100.00;99902.06;5037411;28;20123;-76
2023/03/08 00:53:21;;;;;;;0.90;0.60;;;;;;;-1.67;100.00;99897.75;5054886;28;20046;-76
2023/03/08 00:55:52;;;;;;;1.38;0.60;;;;;;;-1.69;100.00;99904.69;5034969;28;20181;-76
2023/03/08 00:58:18;;;;;;;0.80;0.80;;;;;;;-1.72;100.00;99903.00;5016339;28;20097;-76
2023/03/08 01:00:44;;;;;;;2.63;0.80;;;;;;;-1.73;100.00;99897.81;5051199;28;20036;-76
2023/03/08 01:03:09;;;;;;;1.90;0.60;;;;;;;-1.76;100.00;99905.63;5034684;28;20035;-76
2023/03/08 01:05:39;;;;;;;1.02;0.93;;;;;;;-1.80;100.00;99902.22;5008039;28;20450;-76
2023/03/08 01:08:05;;;;;;;0.82;0.60;;;;;;;-1.83;100.00;99900.50;5034122;28;20441;-76
2023/03/08 01:10:30;;;;;;;1.23;0.60;;;;;;;-1.85;100.00;99903.97;5045036;28;22351;-76
2023/03/08 01:12:56;;;;;;;0.50;0.50;;;;;;;-1.87;100.00;99895.34;5053269;28;20149;-76
2023/03/08 01:15:21;;;;;;;1.00;0.70;;;;;;;-1.91;100.00;99894.50;5034320;28;20024;-76
2023/03/08 01:17:47;;;;;;;0.70;0.70;;;;;;;-1.93;100.00;99888.47;5014876;28;20787;-76
2023/03/08 01:20:12;;;;;;;0.68;0.68;;;;;;;-1.95;100.00;99882.44;5043443;28;20055;-76
2023/03/08 01:22:38;;;;;;;0.73;0.70;;;;;;;-1.96;100.00;99880.72;5027228;28;20034;-76
2023/03/08 01:25:04;;;;;;;0.95;0.70;;;;;;;-1.97;100.00;99879.00;5054556;28;20058;-76
2023/03/08 01:27:29;;;;;;;0.95;0.60;;;;;;;-2.00;100.00;99868.66;5044485;28;20048;-76
2023/03/08 01:29:55;;;;;;;0.88;0.88;;;;;;;-2.00;100.00;99876.44;5051724;28;20066;-76
2023/03/08 01:32:20;;;;;;;1.20;0.80;;;;;;;-2.00;100.00;99876.44;4997156;28;20020;-76
2023/03/08 01:34:46;;;;;;;1.08;0.80;;;;;;;-1.98;100.00;99879.88;5020717;28;20032;-76
2023/03/08 01:37:11;;;;;;;4.82;0.80;;;;;;;-1.95;100.00;99877.25;5038022;28;20031;-76
2023/03/08 01:39:37;;;;;;;3.17;0.82;;;;;;;-1.91;100.00;99884.13;5034721;28;20593;-76
2023/03/08 01:42:06;;;;;;;0.95;0.77;;;;;;;-1.84;100.00;99888.41;5020662;28;20039;-76
2023/03/08 01:44:56;;;;;;;0.50;0.50;;;;;;;-1.78;100.00;99890.91;5033921;28;20068;-76
2023/03/08 01:47:27;;;;;;;0.85;0.70;;;;;;;-1.74;100.00;99886.56;5033213;28;20044;-76
2023/03/08 01:49:54;;;;;;;0.95;0.95;;;;;;;-1.74;100.00;99881.34;5024965;28;21749;-76
2023/03/08 01:52:24;;;;;;;1.65;0.60;;;;;;;-1.73;100.00;99877.03;5019133;28;20111;-76
2023/03/08 01:54:56;;;;;;;1.73;0.55;;;;;;;-1.72;100.00;99878.75;5020600;28;20047;-77
2023/03/08 01:57:31;;;;;;;1.52;0.60;;;;;;;-1.70;100.00;99879.63;5023171;28;20036;-76
2023/03/08 02:00:16;;;;;;;0.50;0.50;;;;;;;-1.70;100.00;99871.84;5035023;28;20953;-76
2023/03/08 02:02:54;;;;;;;0.50;0.50;;;;;;;-1.74;100.00;99860.59;5033977;28;20904;-77
2023/03/08 02:05:20;;;;;;;0.50;0.50;;;;;;;-1.76;100.00;99864.13;5015549;28;20119;-76
2023/03/08 02:07:45;;;;;;;3.40;0.70;;;;;;;-1.80;100.00;99861.53;5033934;28;20035;-76
2023/03/08 02:10:11;;;;;;;0.70;0.70;;;;;;;-1.79;100.00;99865.84;5017956;28;20037;-76
2023/03/08 02:12:37;;;;;;;0.60;0.60;;;;;;;-1.82;100.00;99855.50;5060507;28;20115;-76
2023/03/08 02:15:05;;;;;;;1.25;0.65;;;;;;;-1.83;100.00;99863.28;5047106;28;20032;-76
2023/03/08 02:17:31;;;;;;;3.83;0.80;;;;;;;-1.84;100.00;99870.25;5024914;28;20047;-76
2023/03/08 02:20:05;;;;;;;0.77;0.77;;;;;;;-1.86;100.00;99859.00;5030618;28;20041;-76
2023/03/08 02:22:30;;;;;;;0.93;0.88;;;;;;;-1.87;100.00;99857.28;5049443;28;20036;-76
2023/03/08 02:24:55;;;;;;;0.60;0.60;;;;;;;-1.88;100.00;99852.97;5052141;28;20087;-76
2023/03/08 02:27:23;;;;;;;0.60;0.60;;;;;;;-1.91;100.00;99853.84;5051919;28;20115;-76
2023/03/08 02:29:49;;;;;;;0.82;0.73;;;;;;;-1.94;100.00;99853.03;5033742;28;20047;-76
2023/03/08 02:32:15;;;;;;;1.02;0.68;;;;;;;-1.96;100.00;99854.78;5049019;28;21583;-76
2023/03/08 02:34:41;;;;;;;0.98;0.80;;;;;;;-1.99;100.00;99853.06;5039365;28;20037;-76
2023/03/08 02:37:06;;;;;;;3.17;0.90;;;;;;;-2.01;100.00;99853.97;5052707;28;20113;-76
2023/03/08 02:39:32;;;;;;;2.75;0.90;;;;;;;-2.05;100.00;99856.56;5035712;28;20044;-76
2023/03/08 02:41:58;;;;;;;0.90;0.90;;;;;;;-2.07;100.00;99853.13;5050668;28;20067;-76
2023/03/08 02:44:23;;;;;;;0.80;0.80;;;;;;;-2.10;100.00;99848.00;5033527;28;20028;-76
2023/03/08 02:46:49;;;;;;;1.52;0.82;;;;;;;-2.14;100.00;99843.69;5054008;28;20039;-76
2023/03/08 02:49:14;;;;;;;0.68;0.68;;;;;;;-2.17;100.00;99846.31;5040869;28;20075;-76
2023/03/08 02:51:40;;;;;;;0.80;0.80;;;;;;;-2.19;100.00;99842.88;5042757;28;20040;-76
2023/03/08 02:54:05;;;;;;;2.83;0.90;;;;;;;-2.23;100.00;99825.63;5035972;28;20372;-76
2023/03/08 02:56:31;;;;;;;1.75;1.00;;;;;;;-2.24;100.00;99829.09;5032184;28;20041;-76
2023/03/08 02:58:57;;;;;;;0.70;0.70;;;;;;;-2.27;100.00;99821.34;5008263;28;20981;-76
2023/03/08 03:01:22;;;;;;;0.70;0.70;;;;;;;-2.29;100.00;99823.09;5031555;28;20280;-76
2023/03/08 03:03:48;;;;;;;2.92;0.80;;;;;;;-2.31;100.00;99817.91;5050956;28;20701;-76
2023/03/08 03:06:18;;;;;;;2.13;1.00;;;;;;;-2.32;100.00;99826.56;5047682;28;20111;-76
2023/03/08 03:08:44;;;;;;;1.60;0.90;;;;;;;-2.37;100.00;99817.97;5023312;28;20035;-76
2023/03/08 03:11:14;;;;;;;0.98;0.90;;;;;;;-2.37;100.00;99821.44;5032663;28;20045;-76
2023/03/08 03:13:40;;;;;;;0.93;0.68;;;;;;;-2.40;100.00;99833.56;5035291;28;20036;-76
2023/03/08 03:16:10;;;;;;;1.15;0.80;;;;;;;-2.40;100.00;99824.03;5050786;28;20541;-76
2023/03/08 03:18:36;;;;;;;0.73;0.73;;;;;;;-2.44;100.00;99818.88;5020773;28;21611;-76
2023/03/08 03:21:11;;;;;;;2.72;0.88;;;;;;;-2.48;100.00;99825.84;5050125;28;20056;-76
2023/03/08 03:23:37;;;;;;;0.60;0.60;;;;;;;-2.48;100.00;99816.34;5034147;28;20093;-76
2023/03/08 03:26:11;;;;;;;0.70;0.70;;;;;;;-2.47;100.00;99812.00;5029246;28;20053;-76
2023/03/08 03:28:37;;;;;;;0.70;0.70;;;;;;;-2.49;100.00;99818.94;5029594;28;21656;-76
2023/03/08 03:31:22;;;;;;;2.75;0.95;;;;;;;-2.49;100.00;99818.94;5017335;28;20548;-76
2023/03/08 03:33:48;;;;;;;0.70;0.70;;;;;;;-2.49;100.00;99814.63;5035110;28;20118;-76
2023/03/08 03:36:16;;;;;;;2.15;0.70;;;;;;;-2.49;100.00;99812.03;5029079;28;21255;-76
2023/03/08 03:38:43;;;;;;;0.73;0.73;;;;;;;-2.50;100.00;99818.06;5029481;28;20032;-76
2023/03/08 03:41:14;;;;;;;1.38;0.70;;;;;;;-2.48;100.00;99820.66;5036014;28;20546;-76
2023/03/08 03:43:40;;;;;;;0.70;0.70;;;;;;;-2.50;100.00;99822.41;5013795;28;20043;-76
2023/03/08 03:46:09;;;;;;;1.67;0.70;;;;;;;-2.51;100.00;99820.69;5035578;28;20369;-76
2023/03/08 03:48:35;;;;;;;0.50;0.50;;;;;;;-2.52;100.00;99826.72;5031997;28;20522;-76
2023/03/08 03:51:06;;;;;;;0.70;0.70;;;;;;;-2.51;100.00;99831.06;5036093;28;20032;-76
2023/03/08 03:53:33;;;;;;;0.70;0.70;;;;;;;-2.51;100.00;99824.13;5032635;28;20020;-76
2023/03/08 03:56:07;;;;;;;3.42;0.60;;;;;;;-2.52;100.00;99819.81;5031173;28;20063;-76
2023/03/08 03:58:32;;;;;;;;;;;;;;;-2.52;100.00;99829.31;5050883;28;20044;-76
2023/03/08 04:00:58;;;;;;;0.70;0.70;;;;;;;-2.53;100.00;99818.09;5020978;28;20346;-76
2023/03/08 04:03:23;;;;;;;0.70;0.70;;;;;;;-2.53;100.00;99827.59;5044429;28;20051;-76
2023/03/08 04:05:49;;;;;;;1.20;1.10;;;;;;;-2.55;100.00;99825.03;5052234;28;20044;-75
2023/03/08 04:08:14;;;;;;;6.07;1.05;;;;;;;-2.54;100.00;99833.66;5032215;28;22214;-76
2023/03/08 04:10:40;;;;;;;0.70;0.70;;;;;;;-2.57;100.00;99825.91;5051615;28;20044;-76
2023/03/08 04:13:05;;;;;;;1.65;0.80;;;;;;;-2.57;100.00;99818.13;5044321;28;20129;-75
2023/03/08 04:15:31;;;;;;;0.70;0.70;;;;;;;-2.60;100.00;99812.09;5034743;28;20125;-76
2023/03/08 04:17:56;;;;;;;0.70;0.70;;;;;;;-2.60;100.00;99811.25;5051028;28;20050;-76
2023/03/08 04:20:23;;;;;;;0.70;0.70;;;;;;;-2.61;100.00;99806.94;5050426;28;20031;-75
2023/03/08 04:22:48;;;;;;;2.53;0.70;;;;;;;-2.61;100.00;99812.13;5053300;28;20656;-76
2023/03/08 04:25:14;;;;;;;0.70;0.70;;;;;;;-2.64;100.00;99805.22;5021155;28;20059;-76
2023/03/08 04:27:40;;;;;;;0.93;0.90;;;;;;;-2.62;100.00;99811.25;5015403;28;20089;-76
2023/03/08 04:30:06;;;;;;;0.85;0.70;;;;;;;-2.61;100.00;99806.94;5038404;28;20028;-76
2023/03/08 04:32:32;;;;;;;1.67;0.70;;;;;;;-2.63;100.00;99804.34;5054709;28;20120;-75
2023/03/08 04:34:57;;;;;;;0.80;0.80;;;;;;;-2.63;100.00;99793.97;5032597;28;20035;-76
2023/03/08 04:37:23;;;;;;;1.23;0.90;;;;;;;-2.63;100.00;99791.38;5037584;28;20054;-75
2023/03/08 04:39:49;;;;;;;0.88;0.88;;;;;;;-2.62;100.00;99793.09;5054372;28;20724;-75
2023/03/08 04:42:14;;;;;;;0.70;0.70;;;;;;;-2.62;100.00;99787.91;5053729;28;20044;-75
2023/03/08 04:44:40;;;;;;;1.02;0.85;;;;;;;-2.61;100.00;99781.84;5053288;28;20632;-76
2023/03/08 04:47:05;;;;;;;1.17;0.68;;;;;;;-2.62;100.00;99782.72;5036086;28;21592;-74
2023/03/08 04:49:31;;;;;;;0.70;0.70;;;;;;;-2.62;100.00;99782.72;5038300;28;20036;-74
2023/03/08 04:51:56;;;;;;;0.75;0.75;;;;;;;-2.63;100.00;99786.22;5055962;28;20043;-76
2023/03/08 04:54:22;;;;;;;1.58;0.88;;;;;;;-2.65;100.00;99777.59;5053712;28;20135;-74
2023/03/08 04:56:48;;;;;;;0.70;0.70;;;;;;;-2.68;100.00;99766.38;5049901;28;20117;-75
2023/03/08 04:59:13;;;;;;;0.70;0.70;;;;;;;-2.68;100.00;99763.81;5053884;28;20051;-75
2023/03/08 05:01:39;;;;;;;0.80;0.80;;;;;;;-2.69;100.00;99762.94;5042110;28;20048;-75
2023/03/08 05:04:04;;;;;;;0.75;0.70;;;;;;;-2.70;100.00;99762.94;5053459;28;20029;-75
2023/03/08 05:06:30;;;;;;;0.70;0.70;;;;;;;-2.70;100.00;99753.44;5022614;28;20119;-75
2023/03/08 05:08:55;;;;;;;1.20;1.00;;;;;;;-2.68;100.00;99751.69;5054437;28;20439;-75
2023/03/08 05:11:26;;;;;;;0.85;0.85;;;;;;;-2.69;100.00;99749.97;5033101;28;20399;-75
2023/03/08 05:13:53;;;;;;;1.38;1.17;;;;;;;-2.73;100.00;99759.50;5026423;28;20156;-75
2023/03/08 05:16:19;;;;;;;1.52;0.80;;;;;;;-2.75;100.00;99761.25;5032148;28;20360;-75
2023/03/08 05:18:45;;;;;;;1.98;0.85;;;;;;;-2.75;100.00;99760.38;5051543;28;20042;-75
2023/03/08 05:21:13;;;;;;;0.73;0.73;;;;;;;-2.75;100.00;99755.19;5049784;28;20032;-75
2023/03/08 05:23:39;;;;;;;1.20;0.90;;;;;;;-2.75;100.00;99762.97;5034068;28;20062;-75
2023/03/08 05:26:07;;;;;;;1.10;0.82;;;;;;;-2.77;100.00;99754.38;5016350;28;20584;-75
2023/03/08 05:28:35;;;;;;;1.08;0.93;;;;;;;-2.77;100.00;99749.19;5036657;28;20036;-75
2023/03/08 05:31:05;;;;;;;1.00;1.00;;;;;;;-2.77;100.00;99754.38;5031447;28;21709;-75
2023/03/08 05:33:31;;;;;;;1.10;1.00;;;;;;;-2.77;100.00;99756.94;5037067;28;20380;-75
2023/03/08 05:35:57;;;;;;;0.98;0.85;;;;;;;-2.77;100.00;99751.78;5033371;28;20455;-75
2023/03/08 05:38:23;;;;;;;1.20;1.10;;;;;;;-2.77;100.00;99750.03;5035560;28;20032;-75
2023/03/08 05:40:49;;;;;;;1.10;1.00;;;;;;;-2.78;100.00;99753.50;5034057;28;20048;-75
2023/03/08 05:43:16;;;;;;;1.02;0.85;;;;;;;-2.79;100.00;99750.94;5025674;28;21730;-75
2023/03/08 05:45:41;;;;;;;0.77;0.77;;;;;;;-2.80;100.00;99744.88;5037201;28;20036;-75
2023/03/08 05:48:07;;;;;;;1.50;1.40;;;;;;;-2.81;100.00;99743.16;5032500;28;20443;-75
2023/03/08 05:50:32;;;;;;;1.38;1.25;;;;;;;-2.82;100.00;99738.00;5021899;28;20070;-75
2023/03/08 05:52:58;;;;;;;6.03;2.95;;;;;;;-2.85;100.00;99722.47;5036820;28;20545;-75
2023/03/08 05:55:24;;;;;;;5.55;2.85;;;;;;;-2.89;100.00;99717.31;5016948;28;20036;-75
2023/03/08 05:57:49;;;;;;;3.88;1.95;;;;;;;-2.90;100.00;99710.41;5035833;28;20056;-75
2023/03/08 06:00:15;;;;;;;2.25;1.85;;;;;;;-2.90;100.00;99700.06;5022628;28;20036;-75
2023/03/08 06:02:41;;;;;;;2.40;1.25;;;;;;;-2.89;100.00;99698.34;5051814;28;20494;-75
2023/03/08 06:05:07;;;;;;;1.05;1.02;;;;;;;-2.89;100.00;99688.81;5051550;28;20036;-75
2023/03/08 06:07:32;;;;;;;1.73;1.30;;;;;;;-2.89;100.00;99690.56;5038486;28;20040;-75
2023/03/08 06:09:58;;;;;;;1.10;1.10;;;;;;;-2.87;100.00;99688.81;5036105;28;20047;-75
2023/03/08 06:12:23;;;;;;;1.90;1.30;;;;;;;-2.88;100.00;99674.97;5029273;28;20063;-74
2023/03/08 06:14:49;;;;;;;2.20;1.25;;;;;;;-2.88;100.00;99674.97;5032834;28;20700;-75
2023/03/08 06:17:14;;;;;;;1.10;1.00;;;;;;;-2.90;100.00;99671.56;5034412;28;20152;-74
2023/03/08 06:19:40;;;;;;;2.60;1.30;;;;;;;-2.90;100.00;99671.56;5024226;28;20761;-74
2023/03/08 06:22:05;;;;;;;1.15;1.02;;;;;;;-2.88;100.00;99682.75;5017433;28;20507;-74
2023/03/08 06:24:31;;;;;;;2.30;1.30;;;;;;;-2.89;100.00;99681.03;5052726;28;20521;-74
2023/03/08 06:26:58;;;;;;;1.80;1.30;;;;;;;-2.87;100.00;99681.03;5052053;28;20052;-74
2023/03/08 06:29:24;;;;;;;6.10;3.20;;;;;;;-2.84;100.00;99680.16;5028091;28;20043;-74
2023/03/08 06:31:50;;;;;;;6.10;3.00;;;;;;;-2.81;100.00;99686.16;5037446;28;20403;-74
2023/03/08 06:34:15;;;;;;;4.30;2.30;;;;;;;-2.78;100.00;99687.88;5032605;28;21665;-74
2023/03/08 06:36:41;;;;;;;2.78;1.73;;;;;;;-2.74;100.00;99682.66;5020713;28;21687;-74
2023/03/08 06:39:08;;;;;;;1.58;1.35;;;;;;;-2.67;100.00;99688.59;5033216;28;20156;-74
2023/03/08 06:41:34;;;;;;;4.53;1.73;;;;;;;-2.67;100.00;99680.00;5044461;28;20055;-74
2023/03/08 06:44:00;;;;;;;2.78;2.40;;;;;;;-2.66;100.00;99685.16;5033676;28;20032;-74
2023/03/08 06:46:25;;;;;;;8.05;2.67;;;;;;;-2.64;100.00;99686.00;5027794;28;20032;-73
2023/03/08 06:48:52;;;;;;;4.68;2.60;;;;;;;-2.61;100.00;99685.97;5030722;28;20653;-73
2023/03/08 06:51:18;;;;;;;3.17;2.20;;;;;;;-2.56;100.00;99672.94;5017763;28;20426;-73
2023/03/08 06:53:44;;;;;;;6.10;3.72;;;;;;;-2.54;100.00;99671.22;5039623;28;20031;-73
2023/03/08 06:56:12;;;;;;;5.72;2.45;;;;;;;-2.49;100.00;99676.34;5036016;28;20040;-73
2023/03/08 06:58:38;;;;;;;5.15;2.38;;;;;;;-2.45;100.00;99685.84;5044326;28;20952;-73
2023/03/08 07:01:04;;;;;;;3.08;2.20;;;;;;;-2.42;100.00;99678.00;5016853;28;20115;-74
2023/03/08 07:03:30;;;;;;;2.05;1.60;;;;;;;-2.39;100.00;99675.38;5052641;28;21539;-74
2023/03/08 07:06:06;;;;;;;2.35;2.10;;;;;;;-2.36;100.00;99672.75;5045626;28;20088;-74
2023/03/08 07:08:32;;;;;;;3.00;1.98;;;;;;;-2.30;100.00;99678.75;4997447;28;20055;-74
2023/03/08 07:10:58;;;;;;;3.70;2.30;;;;;;;-2.28;100.00;99671.81;5053403;28;20141;-73
2023/03/08 07:13:24;;;;;;;2.83;2.00;;;;;;;-2.24;100.00;99679.53;5056414;28;20036;-74
2023/03/08 07:15:50;;;;;;;2.33;1.65;;;;;;;-2.19;100.00;99671.69;5051403;28;20035;-74
2023/03/08 07:18:16;;;;;;;2.50;1.77;;;;;;;-2.14;100.00;99662.13;5032563;28;20044;-74
2023/03/08 07:20:42;;;;;;;2.67;1.70;;;;;;;-2.08;100.00;99672.44;5028267;28;20041;-74
2023/03/08 07:23:08;;;;;;;2.60;1.52;;;;;;;-2.03;100.00;99674.97;5033870;28;20495;-74
2023/03/08 07:25:33;;;;;;;2.00;1.40;;;;;;;-1.99;100.00;99675.78;5053521;28;20044;-74
2023/03/08 07:27:59;;;;;;;1.98;1.52;;;;;;;-1.96;100.00;99679.19;5049022;28;20140;-74
2023/03/08 07:30:25;;;;;;;3.13;1.80;;;;;;;-1.93;100.00;99675.72;5051000;28;20703;-74
2023/03/08 07:32:52;;;;;;;2.40;1.20;;;;;;;-1.87;100.00;99677.38;5031641;28;20114;-73
2023/03/08 07:35:18;;;;;;;3.90;1.40;;;;;;;-1.87;100.00;99673.03;4996293;28;20028;-73
2023/03/08 07:37:45;;;;;;;3.03;1.63;;;;;;;-1.82;100.00;99676.44;5053136;28;20466;-73
2023/03/08 07:40:15;;;;;;;2.15;1.48;;;;;;;-1.75;100.00;99687.59;5033934;28;20766;-74
2023/03/08 07:42:41;;;;;;;2.83;1.80;;;;;;;-1.69;100.00;99681.47;5047310;28;20304;-73
2023/03/08 07:45:07;;;;;;;1.45;1.30;;;;;;;-1.64;100.00;99684.84;5014258;28;20051;-74
2023/03/08 07:47:33;;;;;;;2.08;1.63;;;;;;;-1.60;100.00;99680.47;5051748;28;22085;-73
2023/03/08 07:49:59;;;;;;;1.70;1.60;;;;;;;-1.51;100.00;99688.97;5057934;28;20059;-74
2023/03/08 07:52:28;;;;;;;3.03;1.67;;;;;;;-1.45;100.00;99687.19;5041606;28;20518;-73
2023/03/08 07:54:54;;;;;;;2.53;1.60;;;;;;;-1.40;100.00;99682.78;5043855;28;20024;-73
2023/03/08 07:57:20;;;;;;;2.65;1.50;;;;;;;-1.37;100.00;99683.59;5035315;28;20888;-73
2023/03/08 07:59:45;;;;;;;2.25;1.67;;;;;;;-1.32;100.00;99687.88;5018466;28;20431;-73
2023/03/08 08:02:12;;;;;;;2.92;1.90;;;;;;;-1.28;100.00;99686.94;5035172;28;20031;-73
2023/03/08 08:04:38;;;;;;;1.98;1.85;;;;;;;-1.24;100.00;99689.47;5050167;28;20025;-72
2023/03/08 08:07:04;;;;;;;5.00;2.80;;;;;;;-1.19;100.00;99675.56;5026841;28;20062;-73
2023/03/08 08:09:29;;;;;;;4.00;2.60;;;;;;;-1.15;100.00;99679.84;5049602;28;21125;-73
2023/03/08 08:11:55;;;;;;;5.28;2.75;;;;;;;-1.12;100.00;99674.56;5045441;28;20122;-73
2023/03/08 08:14:21;;;;;;;3.70;3.00;;;;;;;-1.08;100.00;99675.38;5028872;28;20032;-73
2023/03/08 08:16:46;;;;;;;6.15;3.08;;;;;;;-1.03;100.00;99676.16;5045489;28;20406;-73
2023/03/08 08:19:13;;;;;;;3.55;2.67;;;;;;;-1.00;100.00;99674.38;5032400;28;20410;-73
2023/03/08 08:21:39;;;;;;;5.07;3.30;;;;;;;-0.93;100.00;99674.28;5039991;28;20028;-73
2023/03/08 08:24:06;;;;;;;5.32;3.45;;;;;;;-0.89;100.00;99669.00;5030297;28;20039;-73
2023/03/08 08:26:31;;;;;;;6.22;3.63;;;;;;;-0.83;100.00;99673.22;5049738;28;20505;-73
2023/03/08 08:28:57;;;;;;;5.65;4.10;;;;;;;-0.80;100.00;99664.53;5033652;28;20039;-73
2023/03/08 08:31:24;;;;;;;6.22;3.78;;;;;;;-0.76;100.00;99661.84;5044941;28;20055;-73
2023/03/08 08:33:51;;;;;;;6.25;3.92;;;;;;;-0.72;100.00;99660.91;5014397;28;20392;-73
2023/03/08 08:36:18;;;;;;;8.13;5.03;;;;;;;-0.67;100.00;99658.22;5036159;28;21740;-73
2023/03/08 08:38:45;;;;;;;8.00;4.78;;;;;;;-0.63;100.00;99659.91;5040403;28;20032;-73
2023/03/08 08:41:14;;;;;;;9.32;5.75;;;;;;;-0.59;100.00;99660.69;5037669;28;20556;-73
2023/03/08 08:43:39;;;;;;;6.13;4.10;;;;;;;-0.53;100.00;99657.13;5052820;28;20763;-73
2023/03/08 08:46:05;;;;;;;5.78;3.97;;;;;;;-0.50;100.00;99654.47;5049435;28;20181;-73
2023/03/08 08:48:33;;;;;;;3.90;3.53;;;;;;;-0.47;100.00;99647.47;5035611;28;20044;-73
2023/03/08 08:50:59;;;;;;;4.13;2.80;;;;;;;-0.43;100.00;99641.31;5035180;28;20046;-73
2023/03/08 08:53:26;;;;;;;5.30;3.40;;;;;;;-0.42;100.00;99640.41;5056850;28;20036;-73
2023/03/08 08:55:51;;;;;;;4.55;3.60;;;;;;;-0.39;100.00;99638.66;5036574;28;20032;-73
2023/03/08 08:58:17;;;;;;;4.15;3.40;;;;;;;-0.38;100.00;99642.97;5056854;28;20036;-73
2023/03/08 09:00:43;;;;;;;4.70;3.50;;;;;;;-0.33;100.00;99641.13;5053752;28;20439;-73
2023/03/08 09:03:09;;;;;;;4.13;3.70;;;;;;;-0.26;100.00;99639.25;5040437;28;20550;-73
2023/03/08 09:05:38;;;;;;;5.43;3.83;;;;;;;-0.26;100.00;99637.53;5036986;28;20085;-74
2023/03/08 09:08:04;;;;;;;5.63;4.00;;;;;;;-0.23;100.00;99636.63;5054813;28;20060;-74
2023/03/08 09:10:34;;;;;;;8.35;4.30;;;;;;;-0.18;100.00;99634.75;5055083;28;20108;-74
2023/03/08 09:12:59;;;;;;;5.03;4.05;;;;;;;-0.14;100.00;99633.81;5006022;28;20020;-72
2023/03/08 09:15:25;;;;;;;4.68;3.95;;;;;;;-0.12;100.00;99631.19;5053984;28;20059;-73
2023/03/08 09:17:51;;;;;;;6.38;4.25;;;;;;;-0.07;100.00;99637.13;5050701;28;20048;-73
2023/03/08 09:20:17;;;;;;;5.05;4.22;;;;;;;-0.07;100.00;99631.94;5033680;28;20044;-73
2023/03/08 09:22:43;;;;;;;6.53;4.57;;;;;;;-0.05;100.00;99630.16;5036751;28;20036;-73
2023/03/08 09:25:09;;;;;;;7.85;5.20;;;;;;;-0.05;100.00;99620.59;5038636;28;20412;-73
2023/03/08 09:27:36;;;;;;;7.05;5.10;;;;;;;-0.01;100.00;99617.06;5052549;28;21135;-73
2023/03/08 09:30:01;;;;;;;7.35;4.93;;;;;;;0.06;100.00;99620.38;5050031;28;20046;-73
2023/03/08 09:32:27;;;;;;;6.35;5.07;;;;;;;0.09;100.00;99617.72;5019217;28;20032;-73
2023/03/08 09:34:53;;;;;;;6.25;5.10;;;;;;;0.17;100.00;99619.28;5034053;28;20040;-73
2023/03/08 09:37:19;;;;;;;5.45;4.70;;;;;;;0.21;100.00;99616.56;5036938;28;20480;-73
2023/03/08 09:39:45;;;;;;;6.07;4.65;;;;;;;0.26;100.00;99619.06;5049550;28;20130;-73
2023/03/08 09:42:21;;;;;;;7.45;5.10;;;;;;;0.28;100.00;99604.28;5052425;28;20383;-73
2023/03/08 09:44:50;;;;;;;6.18;4.32;;;;;;;0.34;100.00;99606.75;5047464;28;20036;-75
2023/03/08 09:47:45;;;;;;;7.43;4.13;;;;;;;0.40;100.00;99609.19;5047695;28;20097;-73
2023/03/08 09:50:10;;;;;;;4.13;3.60;;;;;;;0.51;100.00;99605.50;5049991;28;21630;-73
2023/03/08 09:52:55;;;;;;;5.07;4.03;;;;;;;0.59;100.00;99605.31;5053963;28;20605;-73
2023/03/08 09:55:28;;;;;;;5.55;3.63;;;;;;;0.64;100.00;99599.09;5034227;28;20048;-73
2023/03/08 09:57:56;;;;;;;7.20;3.53;;;;;;;0.71;100.00;99594.59;5055243;28;20162;-73
2023/03/08 10:00:29;;;;;;;4.30;3.53;;;;;;;0.78;100.00;99600.50;5051933;28;20590;-73
2023/03/08 10:03:28;;;;;;;5.22;3.20;;;;;;;0.89;100.00;99597.63;5031867;28;20031;-73
2023/03/08 10:06:09;;;;;;;4.30;3.65;;;;;;;0.97;100.00;99594.84;5033074;28;20043;-73
2023/03/08 10:09:01;;;;;;;5.32;3.30;;;;;;;1.04;100.00;99596.38;5052485;28;20047;-73
2023/03/08 10:11:37;;;;;;;6.82;3.65;;;;;;;1.12;100.00;99594.44;5001806;28;20086;-74
2023/03/08 10:14:23;;;;;;;3.13;2.83;;;;;;;1.21;100.00;99588.13;5056522;28;20060;-74
2023/03/08 10:16:52;;;;;;;5.50;2.75;;;;;;;1.31;100.00;99593.94;5032327;28;20052;-73
2023/03/08 10:19:34;;;;;;;5.78;2.50;;;;;;;1.41;100.00;99590.19;5035684;28;20035;-74
2023/03/08 10:22:07;;;;;;;2.80;2.13;;;;;;;1.51;100.00;99589.94;5013719;28;20047;-74
2023/03/08 10:24:42;;;;;;;2.55;2.28;;;;;;;1.61;100.00;99591.38;5033692;28;20063;-74
2023/03/08 10:27:31;;;;;;;2.15;1.90;;;;;;;1.71;100.00;99582.41;5024384;28;20993;-73
2023/03/08 10:29:58;;;;;;;2.10;1.90;;;;;;;1.82;100.00;99576.00;5031028;28;20101;-73
2023/03/08 10:32:25;;;;;;;1.83;1.73;;;;;;;1.92;100.00;99580.06;5036617;28;20048;-73
2023/03/08 10:34:51;;;;;;;2.22;1.20;;;;;;;2.03;100.00;99580.56;5045840;28;20032;-73
2023/03/08 10:37:19;;;;;;;1.20;1.10;;;;;;;2.11;100.00;99571.63;5010051;28;20552;-73
2023/03/08 10:39:53;;;;;;;1.50;1.40;;;;;;;2.21;100.00;99567.84;5018747;28;20048;-73
2023/03/08 10:42:22;;;;;;;2.85;1.40;;;;;;;2.32;100.00;99559.69;5036022;28;20071;-73
2023/03/08 10:44:53;;;;;;;1.83;1.50;;;;;;;2.40;100.00;99562.06;5050228;28;20064;-73
2023/03/08 10:47:22;;;;;;;1.40;1.30;;;;;;;2.44;100.00;99561.03;5048870;28;20074;-73
2023/03/08 10:49:50;;;;;;;1.42;1.27;;;;;;;2.48;100.00;99564.41;5033647;28;20056;-73
2023/03/08 10:52:27;;;;;;;1.70;1.25;;;;;;;2.50;100.00;99555.63;5018231;28;20032;-74
2023/03/08 10:55:11;;;;;;;2.03;1.40;;;;;;;2.61;100.00;99562.25;5018476;28;20063;-73
2023/03/08 10:57:39;;;;;;;1.30;1.20;;;;;;;2.63;100.00;99556.09;5049247;28;20744;-73
2023/03/08 11:00:28;;;;;;;1.40;1.30;;;;;;;2.63;100.00;99550.84;5048903;28;20529;-73
2023/03/08 11:03:13;;;;;;;2.65;1.30;;;;;;;2.68;100.00;99540.25;5029270;28;20175;-73
2023/03/08 11:05:39;;;;;;;1.77;1.42;;;;;;;2.69;100.00;99540.19;5030506;28;20409;-73
2023/03/08 11:08:16;;;;;;;1.30;1.20;;;;;;;2.76;100.00;99539.97;5027408;28;20028;-73
2023/03/08 11:10:41;;;;;;;1.60;1.30;;;;;;;2.83;100.00;99542.34;5013401;28;20071;-73
2023/03/08 11:13:26;;;;;;;3.25;1.35;;;;;;;2.86;100.00;99549.22;5049432;28;20580;-73
2023/03/08 11:16:37;;;;;;;2.80;1.27;;;;;;;2.90;100.00;99542.13;5032810;28;20033;-73
2023/03/08 11:19:28;;;;;;;1.35;1.27;;;;;;;2.91;100.00;99536.84;5048171;28;20040;-73
2023/03/08 11:22:08;;;;;;;1.35;0.90;;;;;;;2.90;100.00;99531.66;5049617;28;20518;-73
2023/03/08 11:25:12;;;;;;;2.25;0.80;;;;;;;2.83;100.00;99525.81;5052116;28;20032;-72
2023/03/08 11:27:59;;;;;;;1.13;0.70;;;;;;;2.82;100.00;99529.31;5034092;28;20384;-72
2023/03/08 11:31:13;;;;;;;0.82;0.60;;;;;;;2.84;100.00;99523.13;5051328;28;20040;-73
2023/03/08 11:34:15;;;;;;;0.70;0.70;;;;;;;2.89;100.00;99524.72;4943446;28;20038;-73